Time;durP1;ratioP1;P1;durP2;ratioP2;P2;SDS_P1;SDS_P2;PMS_P1;PMS_P2;Temp;Humidity;BMP_temperature;BMP_pressure;BME280_temperature;BME280_humidity;BME280_pressure;Samples;Min_cycle;Max_cycle;Signal;HPM_P1;HPM_P2
2022/02/05 00:00:32;;;;;;;21.75;17.13;;;11.10;96.70;;;;;;5003400;28;20135;-80
2022/02/05 00:05:54;;;;;;;26.00;17.85;;;11.10;96.70;;;;;;5004977;28;20060;-78
2022/02/05 00:08:44;;;;;;;21.70;16.10;;;11.10;96.70;;;;;;5002988;28;20034;-80
2022/02/05 00:38:58;;;;;;;22.80;18.08;;;11.10;96.70;;;;;;5003649;28;20046;-80
2022/02/05 00:43:58;;;;;;;21.85;17.88;;;11.10;96.70;;;;;;5004031;28;20568;-79
2022/02/05 00:46:31;;;;;;;21.17;17.30;;;11.10;96.70;;;;;;5003077;28;20492;-79
2022/02/05 00:49:00;;;;;;;19.50;16.05;;;11.10;96.70;;;;;;5001974;28;20045;-78
2022/02/05 00:51:35;;;;;;;20.45;17.25;;;11.20;96.70;;;;;;4984430;28;20140;-79
2022/02/05 00:54:10;;;;;;;18.92;16.90;;;11.20;96.70;;;;;;5001367;28;20594;-80
2022/02/05 00:59:13;;;;;;;22.70;18.48;;;11.20;96.70;;;;;;5009399;28;20575;-78
2022/02/05 01:01:42;;;;;;;23.40;17.73;;;11.20;96.70;;;;;;4980410;28;20105;-79
2022/02/05 01:04:10;;;;;;;20.80;16.58;;;11.20;96.70;;;;;;4986145;28;20033;-79
2022/02/05 01:06:42;;;;;;;21.65;16.95;;;11.20;96.70;;;;;;4989607;28;20046;-80
2022/02/05 01:09:16;;;;;;;21.67;17.77;;;11.20;96.70;;;;;;4985370;28;20053;-79
2022/02/05 01:11:44;;;;;;;23.33;18.50;;;11.20;96.70;;;;;;5002230;28;20049;-79
2022/02/05 01:14:16;;;;;;;21.45;17.83;;;11.20;96.70;;;;;;4987698;28;20131;-79
2022/02/05 01:16:57;;;;;;;21.05;16.88;;;11.20;96.70;;;;;;4995449;28;20053;-78
2022/02/05 01:22:15;;;;;;;20.23;17.08;;;11.20;96.70;;;;;;5004791;28;20053;-80
2022/02/05 01:24:46;;;;;;;22.23;17.58;;;11.20;96.70;;;;;;5010923;28;20105;-79
2022/02/05 01:27:31;;;;;;;24.45;17.75;;;11.20;96.70;;;;;;4984716;28;20052;-80
2022/02/05 01:32:36;;;;;;;22.13;17.48;;;11.20;96.70;;;;;;4998824;28;20591;-78
2022/02/05 01:35:19;;;;;;;21.00;17.33;;;11.20;96.70;;;;;;4970358;28;20137;-78
2022/02/05 01:49:28;;;;;;;22.60;15.60;;;11.20;96.70;;;;;;4982941;28;20164;-77
2022/02/05 01:52:05;;;;;;;21.83;16.40;;;11.20;96.70;;;;;;4988301;28;20392;-77
2022/02/05 02:04:49;;;;;;;23.88;17.05;;;10.90;96.70;;;;;;4913558;28;20108;-78
2022/02/05 02:05:51;;;;;;;21.75;16.67;;;11.00;96.70;;;;;;5005122;28;20049;-78
2022/02/05 02:11:28;;;;;;;21.20;16.10;;;11.00;96.70;;;;;;4987638;28;20601;-77
2022/02/05 02:14:31;;;;;;;;;;;11.10;96.70;;;;;;4988016;28;20073;-77
2022/02/05 02:19:52;;;;;;;17.45;14.45;;;11.10;96.70;;;;;;4998800;28;20500;-78
2022/02/05 02:28:07;;;;;;;18.60;13.65;;;10.90;96.70;;;;;;4943754;28;20532;-78
2022/02/05 02:30:41;;;;;;;19.50;14.05;;;11.00;96.70;;;;;;4926285;29;20512;-77
2022/02/05 02:33:22;;;;;;;19.67;13.88;;;10.80;96.70;;;;;;4930285;28;20055;-77
2022/02/05 02:35:50;;;;;;;19.83;13.68;;;10.80;96.70;;;;;;4942069;28;20047;-77
2022/02/05 02:38:25;;;;;;;19.67;13.43;;;10.80;96.70;;;;;;4930630;28;20060;-77
2022/02/05 02:41:05;;;;;;;22.23;14.35;;;10.80;96.70;;;;;;4935326;28;20464;-77
2022/02/05 02:43:35;;;;;;;16.38;12.35;;;10.80;96.70;;;;;;4929745;28;20125;-77
2022/02/05 02:46:05;;;;;;;17.48;12.73;;;10.80;96.70;;;;;;4913669;29;20526;-77
2022/02/05 02:48:33;;;;;;;17.80;13.10;;;10.80;96.70;;;;;;4942030;28;20182;-77
2022/02/05 02:59:04;;;;;;;17.65;13.00;;;10.90;96.70;;;;;;4928689;28;20704;-77
2022/02/05 03:01:36;;;;;;;19.10;12.23;;;10.90;96.70;;;;;;4930269;28;20144;-77
2022/02/05 03:04:04;;;;;;;19.35;12.88;;;10.90;96.70;;;;;;5002652;28;20061;-77
2022/02/05 03:06:32;;;;;;;17.20;11.95;;;10.90;96.70;;;;;;4981943;28;20097;-77
2022/02/05 03:09:02;;;;;;;17.63;13.18;;;10.90;96.70;;;;;;4983360;28;20038;-77
2022/02/05 03:11:31;;;;;;;17.67;12.05;;;10.90;96.70;;;;;;4988445;28;20048;-77
2022/02/05 03:13:59;;;;;;;15.23;11.82;;;11.00;96.70;;;;;;4989674;28;20046;-77
2022/02/05 03:16:34;;;;;;;18.20;12.55;;;10.90;96.70;;;;;;4984100;28;20042;-79
2022/02/05 03:21:33;;;;;;;15.57;11.98;;;10.80;96.70;;;;;;4990126;28;20053;-80
2022/02/05 03:24:03;;;;;;;16.83;12.00;;;10.90;96.70;;;;;;5007324;28;20050;-80
2022/02/05 03:26:34;;;;;;;19.60;11.85;;;10.90;96.70;;;;;;4992118;28;20129;-80
2022/02/05 03:29:05;;;;;;;16.05;12.23;;;10.90;96.70;;;;;;4993834;28;20049;-80
2022/02/05 03:31:34;;;;;;;17.75;12.45;;;10.90;96.70;;;;;;4980917;28;20125;-80
2022/02/05 03:34:03;;;;;;;19.20;12.43;;;10.90;96.70;;;;;;4987219;28;20049;-80
2022/02/05 03:36:32;;;;;;;17.30;11.57;;;11.00;96.70;;;;;;4996439;28;20057;-80
2022/02/05 03:39:03;;;;;;;18.20;12.15;;;11.00;96.70;;;;;;4986163;28;20050;-80
2022/02/05 03:41:32;;;;;;;15.57;11.85;;;11.00;96.70;;;;;;5003359;28;20127;-80
2022/02/05 03:44:00;;;;;;;17.50;12.25;;;11.00;96.70;;;;;;5002470;28;20072;-80
2022/02/05 03:46:29;;;;;;;14.75;11.68;;;11.00;96.70;;;;;;4985383;28;20050;-80
2022/02/05 03:48:58;;;;;;;15.02;12.05;;;11.00;96.70;;;;;;4990202;28;20115;-79
2022/02/05 03:51:26;;;;;;;17.55;12.55;;;11.00;96.70;;;;;;5002680;28;20049;-80
2022/02/05 03:53:55;;;;;;;17.75;12.52;;;11.00;96.70;;;;;;4987249;28;20740;-79
2022/02/05 03:56:25;;;;;;;16.20;12.13;;;11.00;96.70;;;;;;5003594;28;20124;-80
2022/02/05 03:58:53;;;;;;;18.48;12.38;;;10.90;96.70;;;;;;5006189;28;20167;-79
2022/02/05 04:01:21;;;;;;;15.85;12.35;;;10.90;96.70;;;;;;4990147;28;20557;-80
2022/02/05 04:03:49;;;;;;;16.40;11.60;;;10.90;96.70;;;;;;5004450;28;20080;-79
2022/02/05 04:06:17;;;;;;;18.58;11.82;;;10.90;96.70;;;;;;4983682;28;20038;-79
2022/02/05 04:08:47;;;;;;;17.23;11.65;;;10.90;96.70;;;;;;4984503;28;21099;-80
2022/02/05 04:11:33;;;;;;;15.15;11.65;;;10.80;96.70;;;;;;5006030;28;20187;-80
2022/02/05 04:16:52;;;;;;;16.80;11.38;;;10.90;96.70;;;;;;5003900;28;20132;-80
2022/02/05 04:19:20;;;;;;;18.98;12.38;;;10.90;96.70;;;;;;4997625;28;20586;-80
2022/02/05 04:21:48;;;;;;;13.07;11.20;;;10.90;96.70;;;;;;5008101;28;20455;-80
2022/02/05 04:24:17;;;;;;;15.00;11.38;;;10.90;96.70;;;;;;4987000;28;20582;-80
2022/02/05 04:26:46;;;;;;;15.75;12.10;;;10.90;96.70;;;;;;5006602;28;20092;-80
2022/02/05 04:29:16;;;;;;;12.63;10.48;;;10.90;96.70;;;;;;4999526;28;20044;-80
2022/02/05 04:31:44;;;;;;;19.27;12.05;;;10.90;96.70;;;;;;5000826;28;20426;-80
2022/02/05 04:34:14;;;;;;;16.25;11.13;;;10.90;96.70;;;;;;4984459;28;20136;-80
2022/02/05 04:36:42;;;;;;;16.20;11.68;;;11.00;96.70;;;;;;5000963;28;20160;-80
2022/02/05 04:39:15;;;;;;;13.13;10.77;;;11.00;96.70;;;;;;4987915;28;20070;-79
2022/02/05 04:41:59;;;;;;;15.27;12.00;;;11.00;96.70;;;;;;5006500;28;20715;-80
2022/02/05 04:57:56;;;;;;;13.82;10.65;;;11.00;96.70;;;;;;4971329;28;20054;-79
2022/02/05 05:08:52;;;;;;;15.10;11.82;;;11.10;96.70;;;;;;5001816;28;20046;-80
2022/02/05 05:11:40;;;;;;;17.88;11.02;;;11.10;96.70;;;;;;5005023;28;20042;-80
2022/02/05 05:19:37;;;;;;;14.40;11.10;;;11.00;96.70;;;;;;5001397;28;20046;-79
2022/02/05 05:22:05;;;;;;;14.52;10.55;;;11.10;96.70;;;;;;5004532;28;20046;-79
2022/02/05 05:24:33;;;;;;;14.50;10.85;;;11.10;96.70;;;;;;5001376;28;20037;-80
2022/02/05 05:27:01;;;;;;;14.63;10.68;;;11.00;96.70;;;;;;4999931;28;20459;-80
2022/02/05 05:29:29;;;;;;;13.02;10.55;;;11.10;96.70;;;;;;5003290;28;20122;-80
2022/02/05 05:31:58;;;;;;;12.30;10.27;;;11.00;96.70;;;;;;5004189;28;20060;-80
2022/02/05 05:34:26;;;;;;;15.45;11.00;;;11.00;96.70;;;;;;4986724;28;20042;-80
2022/02/05 05:36:56;;;;;;;15.82;11.57;;;11.00;96.70;;;;;;5000973;28;20121;-80
2022/02/05 05:39:24;;;;;;;13.60;10.05;;;11.00;96.70;;;;;;4988074;28;20050;-80
2022/02/05 05:41:52;;;;;;;14.85;10.63;;;11.00;96.70;;;;;;4991699;28;20041;-80
2022/02/05 05:52:19;;;;;;;13.90;10.50;;;10.90;96.70;;;;;;5013774;28;20284;-80
2022/02/05 05:54:47;;;;;;;14.23;10.35;;;10.90;96.70;;;;;;5006383;28;20038;-80
2022/02/05 05:57:15;;;;;;;14.98;10.48;;;10.90;96.70;;;;;;5008266;28;20064;-80
2022/02/05 05:59:44;;;;;;;12.23;10.02;;;10.90;96.70;;;;;;4993585;28;20100;-80
2022/02/05 06:02:13;;;;;;;12.93;10.40;;;11.00;96.70;;;;;;5012321;28;20491;-80
2022/02/05 06:04:41;;;;;;;14.02;9.75;;;11.00;96.70;;;;;;5006531;28;20147;-80
2022/02/05 06:07:09;;;;;;;13.18;9.93;;;10.90;96.70;;;;;;5006328;28;20119;-79
2022/02/05 06:09:42;;;;;;;15.90;9.73;;;10.90;96.70;;;;;;4991744;28;20064;-80
2022/02/05 06:12:11;;;;;;;13.30;10.48;;;11.00;96.70;;;;;;4997186;28;20196;-80
2022/02/05 06:14:40;;;;;;;15.63;10.40;;;11.00;96.70;;;;;;4986997;28;20046;-80
2022/02/05 06:17:22;;;;;;;12.93;10.65;;;11.00;96.70;;;;;;5005917;28;20041;-80
2022/02/05 06:19:50;;;;;;;17.42;10.15;;;11.00;96.70;;;;;;5007191;28;20049;-80
2022/02/05 06:22:19;;;;;;;13.52;10.02;;;10.90;96.70;;;;;;5006437;28;20077;-80
2022/02/05 06:24:47;;;;;;;12.18;9.25;;;11.00;96.70;;;;;;4985690;28;20611;-80
2022/02/05 06:27:15;;;;;;;11.82;9.85;;;11.00;96.70;;;;;;4985215;28;20523;-80
2022/02/05 06:29:43;;;;;;;15.45;9.80;;;11.00;96.70;;;;;;5011256;28;20061;-80
2022/02/05 06:32:15;;;;;;;14.32;10.10;;;11.00;96.70;;;;;;4995521;28;20499;-81
2022/02/05 06:34:45;;;;;;;13.25;9.93;;;11.00;96.70;;;;;;5003441;28;20060;-78
2022/02/05 06:37:13;;;;;;;11.63;9.43;;;11.00;96.70;;;;;;4986017;28;20416;-77
2022/02/05 06:39:42;;;;;;;12.25;10.10;;;10.90;96.70;;;;;;5005316;28;20034;-78
2022/02/05 06:42:11;;;;;;;13.70;10.20;;;10.90;96.70;;;;;;5005427;28;20046;-78
2022/02/05 06:44:39;;;;;;;13.27;10.27;;;11.00;96.70;;;;;;5004812;28;20111;-78
2022/02/05 06:47:07;;;;;;;12.75;9.43;;;11.00;96.70;;;;;;4989967;28;20473;-78
2022/02/05 06:49:35;;;;;;;14.73;10.18;;;11.00;96.70;;;;;;4991128;28;20042;-78
2022/02/05 06:52:07;;;;;;;14.30;9.93;;;10.90;96.70;;;;;;4988473;28;20132;-79
2022/02/05 06:54:35;;;;;;;13.20;9.50;;;10.90;96.70;;;;;;5002277;28;20133;-78
2022/02/05 06:57:03;;;;;;;16.02;10.00;;;11.00;96.70;;;;;;4991435;28;20251;-78
2022/02/05 06:59:31;;;;;;;14.98;10.48;;;11.00;96.70;;;;;;4993066;28;20571;-78
2022/02/05 07:02:00;;;;;;;14.27;9.90;;;11.00;96.70;;;;;;4986568;28;20460;-77
2022/02/05 07:04:28;;;;;;;13.45;10.20;;;10.90;96.70;;;;;;4991952;28;20060;-77
2022/02/05 07:06:57;;;;;;;14.45;10.95;;;11.00;96.70;;;;;;5005188;28;20147;-76
2022/02/05 07:09:28;;;;;;;14.18;9.88;;;10.90;96.70;;;;;;4971745;28;20067;-77
2022/02/05 07:11:58;;;;;;;13.75;10.40;;;10.90;96.70;;;;;;5003074;28;20069;-78
2022/02/05 07:14:33;;;;;;;14.85;9.75;;;10.90;96.70;;;;;;5005083;28;20053;-78
2022/02/05 07:17:18;;;;;;;15.23;10.35;;;10.90;96.70;;;;;;5002099;28;20149;-79
2022/02/05 07:20:05;;;;;;;13.45;9.43;;;10.80;96.70;;;;;;5006253;28;20045;-78
2022/02/05 07:22:42;;;;;;;13.07;10.70;;;10.80;96.70;;;;;;4992892;28;20048;-78
2022/02/05 07:30:40;;;;;;;14.40;10.38;;;10.90;96.70;;;;;;4975705;28;20550;-79
2022/02/05 07:33:08;;;;;;;12.05;9.65;;;10.90;96.70;;;;;;5004353;28;20065;-78
2022/02/05 07:35:37;;;;;;;13.77;10.63;;;11.00;96.70;;;;;;4995797;28;20092;-78
2022/02/05 07:38:05;;;;;;;16.23;11.52;;;11.00;96.70;;;;;;5002313;28;20152;-78
2022/02/05 07:40:35;;;;;;;19.98;13.82;;;11.00;96.70;;;;;;4985824;28;20053;-78
2022/02/05 07:43:03;;;;;;;18.33;13.45;;;11.00;96.70;;;;;;5004589;28;20077;-78
2022/02/05 07:45:31;;;;;;;19.35;14.27;;;11.00;96.70;;;;;;5006780;28;20038;-78
2022/02/05 07:47:59;;;;;;;21.08;14.60;;;11.00;96.70;;;;;;5005941;28;20064;-78
2022/02/05 07:50:27;;;;;;;21.33;16.05;;;11.00;96.70;;;;;;5000800;28;20672;-78
2022/02/05 07:52:55;;;;;;;20.08;14.88;;;11.10;96.70;;;;;;5002883;28;20560;-78
2022/02/05 07:55:23;;;;;;;25.67;18.75;;;11.10;96.70;;;;;;4986441;28;20088;-81
2022/02/05 07:57:53;;;;;;;38.67;27.52;;;11.10;96.70;;;;;;4986242;28;20513;-79
2022/02/05 08:00:21;;;;;;;23.90;18.73;;;11.10;96.70;;;;;;5001042;28;20050;-78
2022/02/05 08:02:49;;;;;;;25.02;18.88;;;11.20;96.70;;;;;;5002366;28;20455;-79
2022/02/05 08:05:17;;;;;;;24.88;19.15;;;11.10;96.70;;;;;;4990062;28;20045;-81
2022/02/05 08:07:45;;;;;;;19.55;16.25;;;11.20;96.70;;;;;;5007849;28;20038;-81
2022/02/05 08:10:14;;;;;;;20.25;16.45;;;11.20;96.70;;;;;;5007885;28;20423;-81
2022/02/05 08:12:49;;;;;;;18.38;16.10;;;11.20;96.70;;;;;;5005842;28;20546;-82
2022/02/05 08:15:23;;;;;;;21.92;15.60;;;11.30;96.70;;;;;;5007475;28;20072;-83
2022/02/05 08:17:51;;;;;;;17.38;14.00;;;11.30;96.70;;;;;;5015585;28;20065;-81
2022/02/05 08:20:19;;;;;;;17.58;12.20;;;11.30;96.70;;;;;;4983901;28;20048;-80
2022/02/05 08:22:47;;;;;;;15.57;12.75;;;11.40;96.70;;;;;;5000948;28;20042;-80
2022/02/05 08:25:17;;;;;;;15.65;11.90;;;11.40;96.70;;;;;;4985888;28;20060;-80
2022/02/05 08:27:45;;;;;;;15.55;13.27;;;11.40;96.70;;;;;;5012809;28;20404;-81
2022/02/05 08:30:14;;;;;;;15.45;12.85;;;11.40;96.70;;;;;;5010056;28;20424;-81
2022/02/05 08:32:45;;;;;;;15.40;12.90;;;11.40;96.70;;;;;;5003745;28;20045;-80
2022/02/05 08:35:13;;;;;;;16.38;13.15;;;11.40;96.70;;;;;;5004175;28;20512;-80
2022/02/05 08:37:46;;;;;;;19.33;13.07;;;11.40;96.70;;;;;;5003933;28;20140;-80
2022/02/05 08:40:16;;;;;;;18.00;14.32;;;11.40;96.70;;;;;;5007908;28;20038;-81
2022/02/05 08:42:44;;;;;;;16.95;14.68;;;11.40;96.70;;;;;;5007000;28;20065;-81
2022/02/05 08:45:12;;;;;;;15.98;14.00;;;11.40;96.70;;;;;;4990669;28;20038;-81
2022/02/05 08:47:40;;;;;;;18.00;14.93;;;11.40;96.70;;;;;;4986990;28;20088;-82
2022/02/05 08:50:10;;;;;;;19.83;14.98;;;11.40;96.70;;;;;;5003167;28;20041;-81
2022/02/05 08:52:40;;;;;;;19.27;14.77;;;11.50;96.70;;;;;;5005621;28;20396;-81
2022/02/05 08:55:09;;;;;;;16.58;13.93;;;11.50;96.70;;;;;;5011309;28;20046;-81
2022/02/05 08:57:39;;;;;;;18.02;14.80;;;11.60;96.70;;;;;;5000464;28;20048;-80
2022/02/05 09:00:13;;;;;;;18.88;14.73;;;11.50;96.70;;;;;;4997450;28;20034;-81
2022/02/05 09:02:55;;;;;;;16.88;14.98;;;11.60;96.70;;;;;;5000645;28;20042;-81
2022/02/05 09:05:42;;;;;;;19.77;14.30;;;11.60;96.70;;;;;;5002298;28;20041;-79
2022/02/05 09:08:21;;;;;;;20.75;15.43;;;11.60;96.70;;;;;;4992016;28;20045;-78
2022/02/05 09:11:04;;;;;;;21.38;14.35;;;11.70;96.70;;;;;;5001575;28;20451;-79
2022/02/05 09:16:15;;;;;;;22.60;15.38;;;11.80;96.70;;;;;;4986588;28;20056;-76
2022/02/05 09:18:45;;;;;;;18.38;14.90;;;11.90;96.70;;;;;;5001213;28;20050;-76
2022/02/05 09:21:16;;;;;;;19.33;16.40;;;12.00;96.70;;;;;;5007508;28;20042;-76
2022/02/05 09:23:47;;;;;;;18.73;15.35;;;12.00;96.70;;;;;;5005233;28;20487;-78
2022/02/05 09:26:17;;;;;;;20.27;15.52;;;12.00;96.70;;;;;;4989972;28;20042;-77
2022/02/05 09:28:45;;;;;;;17.13;13.98;;;12.10;96.70;;;;;;5004482;28;20046;-77
2022/02/05 09:31:26;;;;;;;25.27;19.23;;;12.10;96.70;;;;;;4987323;28;20048;-76
2022/02/05 09:33:55;;;;;;;18.17;14.98;;;12.20;96.70;;;;;;5006587;28;20045;-76
2022/02/05 09:36:26;;;;;;;19.15;15.35;;;12.30;96.70;;;;;;5003225;28;20061;-76
2022/02/05 09:38:56;;;;;;;16.90;14.10;;;12.30;96.70;;;;;;4987647;28;20069;-77
2022/02/05 09:41:25;;;;;;;15.40;13.65;;;12.40;96.70;;;;;;5003409;28;20041;-76
2022/02/05 09:43:55;;;;;;;17.85;14.30;;;12.40;96.70;;;;;;4989865;28;20476;-76
2022/02/05 09:46:24;;;;;;;16.63;13.82;;;12.50;96.70;;;;;;4991061;28;20096;-76
2022/02/05 09:48:55;;;;;;;18.70;13.93;;;12.60;96.70;;;;;;4971357;28;20072;-76
2022/02/05 09:51:32;;;;;;;19.27;14.25;;;12.60;96.70;;;;;;4988206;28;20041;-76
2022/02/05 09:54:04;;;;;;;17.83;13.82;;;12.70;96.70;;;;;;5007205;28;20046;-78
2022/02/05 09:56:35;;;;;;;16.65;13.90;;;12.80;96.70;;;;;;4987197;28;20066;-79
2022/02/05 09:59:04;;;;;;;16.67;12.68;;;12.80;96.70;;;;;;5005955;28;20042;-79
2022/02/05 10:01:36;;;;;;;15.38;11.70;;;12.80;96.70;;;;;;4968979;28;20049;-80
2022/02/05 10:04:10;;;;;;;14.32;11.00;;;12.80;96.70;;;;;;4989017;28;20045;-80
2022/02/05 10:06:49;;;;;;;17.75;11.05;;;12.90;96.70;;;;;;5003807;28;20042;-80
2022/02/05 10:09:18;;;;;;;11.93;9.13;;;12.90;96.70;;;;;;4987583;28;20149;-77
2022/02/05 10:11:49;;;;;;;11.50;9.60;;;13.00;96.70;;;;;;4984888;28;20053;-77
2022/02/05 10:14:21;;;;;;;15.52;9.43;;;13.10;96.70;;;;;;4973155;28;20527;-77
2022/02/05 10:16:52;;;;;;;16.50;9.50;;;13.10;96.70;;;;;;5004261;28;20048;-77
2022/02/05 10:19:22;;;;;;;15.43;9.82;;;13.20;96.70;;;;;;5009768;28;20046;-77
2022/02/05 10:22:05;;;;;;;12.95;10.32;;;13.20;96.70;;;;;;4990907;28;20049;-77
2022/02/05 10:24:34;;;;;;;12.77;9.32;;;13.20;96.70;;;;;;5001434;28;20053;-77
2022/02/05 10:27:04;;;;;;;12.40;8.95;;;13.30;96.70;;;;;;4999054;28;20057;-77
2022/02/05 10:29:43;;;;;;;14.13;8.73;;;13.50;96.70;;;;;;5001803;28;20050;-78
2022/02/05 10:32:22;;;;;;;13.05;8.45;;;13.50;96.70;;;;;;5000838;28;20050;-77
2022/02/05 10:35:08;;;;;;;21.70;16.02;;;13.60;96.70;;;;;;4987425;28;20038;-81
2022/02/05 10:37:46;;;;;;;16.60;11.17;;;13.80;96.70;;;;;;4999495;28;20054;-81
2022/02/05 10:40:22;;;;;;;16.15;10.43;;;14.00;96.70;;;;;;4985168;28;20293;-81
2022/02/05 10:43:05;;;;;;;13.52;9.63;;;14.00;96.70;;;;;;4981161;28;20049;-80
2022/02/05 10:45:43;;;;;;;11.60;8.88;;;13.90;96.70;;;;;;4984717;28;20057;-82
2022/02/05 10:48:14;;;;;;;13.70;8.30;;;13.80;96.70;;;;;;4982488;28;20089;-81
2022/02/05 10:50:44;;;;;;;12.00;7.82;;;13.80;96.70;;;;;;4982431;28;20069;-81
2022/02/05 10:53:32;;;;;;;10.55;7.53;;;13.90;96.70;;;;;;5001204;28;20109;-84
2022/02/05 10:56:12;;;;;;;12.23;8.00;;;14.00;96.70;;;;;;4999088;28;20048;-78
2022/02/05 11:07:04;;;;;;;8.63;6.35;;;14.40;96.70;;;;;;4999505;28;20058;-76
2022/02/05 11:09:35;;;;;;;12.68;6.82;;;14.20;96.70;;;;;;4996489;28;20042;-75
2022/02/05 11:20:16;;;;;;;13.65;5.18;;;14.00;96.70;;;;;;4971695;28;20049;-75
2022/02/05 11:22:48;;;;;;;10.10;4.10;;;14.30;96.70;;;;;;4984027;28;20051;-76
2022/02/05 11:25:20;;;;;;;11.07;6.47;;;14.30;96.70;;;;;;4988109;28;20295;-75
2022/02/05 11:27:53;;;;;;;12.55;7.13;;;14.40;96.70;;;;;;5001902;28;20056;-76
2022/02/05 11:30:32;;;;;;;15.75;7.82;;;14.40;96.70;;;;;;4984099;28;20206;-77
2022/02/05 11:33:05;;;;;;;9.93;7.47;;;14.30;96.70;;;;;;4984834;28;20453;-77
2022/02/05 11:38:38;;;;;;;19.55;12.45;;;14.50;96.70;;;;;;4975685;28;20427;-76
2022/02/05 11:41:27;;;;;;;11.50;8.13;;;14.40;96.70;;;;;;4982282;28;20051;-76
2022/02/05 11:44:24;;;;;;;9.65;5.70;;;14.60;96.70;;;;;;4965023;28;20164;-76
2022/02/05 11:47:35;;;;;;;14.30;6.65;;;14.80;96.70;;;;;;4980445;28;20062;-76
2022/02/05 11:50:28;;;;;;;11.80;5.50;;;15.10;96.70;;;;;;4944854;28;20091;-76
2022/02/05 11:53:09;;;;;;;9.32;5.43;;;15.30;96.70;;;;;;4984021;28;20131;-77
2022/02/05 11:55:44;;;;;;;17.55;7.15;;;15.50;96.70;;;;;;4981294;28;20134;-75
2022/02/05 11:58:17;;;;;;;9.77;6.40;;;15.50;96.70;;;;;;4985545;28;20046;-75
2022/02/05 12:00:57;;;;;;;9.65;5.70;;;15.70;96.70;;;;;;4994948;28;20167;-77
2022/02/05 12:03:37;;;;;;;10.43;5.35;;;15.80;96.70;;;;;;4979476;28;20053;-75
2022/02/05 12:06:14;;;;;;;14.23;5.37;;;15.80;96.70;;;;;;4980741;28;20030;-77
2022/02/05 12:08:45;;;;;;;11.10;6.10;;;15.90;96.70;;;;;;4980034;28;20436;-76
2022/02/05 12:11:35;;;;;;;9.82;4.80;;;15.90;96.70;;;;;;4983204;28;20121;-76
2022/02/05 12:14:15;;;;;;;10.20;4.72;;;16.00;96.70;;;;;;4989467;28;20078;-76
2022/02/05 12:17:08;;;;;;;10.57;4.82;;;16.10;96.70;;;;;;4998901;28;20100;-77
2022/02/05 12:20:03;;;;;;;9.45;4.85;;;16.30;96.70;;;;;;4984150;28;20168;-77
2022/02/05 12:23:24;;;;;;;10.40;5.25;;;16.40;96.70;;;;;;4967943;28;20165;-78
2022/02/05 12:26:20;;;;;;;9.00;4.93;;;16.50;96.70;;;;;;4957914;28;20043;-77
2022/02/05 12:28:51;;;;;;;11.25;4.97;;;16.70;96.70;;;;;;4938543;28;20505;-77
2022/02/05 12:31:40;;;;;;;10.80;4.63;;;16.80;96.70;;;;;;4941612;28;20047;-78
2022/02/05 12:34:17;;;;;;;12.20;5.97;;;16.80;96.70;;;;;;4959175;28;21403;-77
2022/02/05 12:36:50;;;;;;;9.32;5.15;;;16.80;96.70;;;;;;4940780;28;20255;-77
2022/02/05 12:39:25;;;;;;;8.02;4.63;;;16.90;96.70;;;;;;4941703;28;20053;-77
2022/02/05 12:41:58;;;;;;;6.85;4.55;;;17.00;96.70;;;;;;4946319;28;20039;-77
2022/02/05 12:44:29;;;;;;;7.88;4.93;;;17.30;96.70;;;;;;4959000;28;20131;-77
2022/02/05 12:47:23;;;;;;;9.48;4.18;;;17.40;96.70;;;;;;4949473;28;20050;-78
2022/02/05 12:50:02;;;;;;;7.63;3.85;;;17.40;96.70;;;;;;4946138;28;20051;-77
2022/02/05 12:52:33;;;;;;;5.07;3.03;;;17.00;96.70;;;;;;4940060;28;20050;-78
2022/02/05 12:55:03;;;;;;;8.15;3.22;;;16.80;96.70;;;;;;4960612;28;20051;-78
2022/02/05 12:57:32;;;;;;;16.02;12.98;;;16.50;96.70;;;;;;4942106;28;20050;-77
2022/02/05 13:00:08;;;;;;;6.50;3.75;;;16.30;96.70;;;;;;4975378;28;20516;-78
2022/02/05 13:02:40;;;;;;;9.98;5.75;;;16.40;96.70;;;;;;4960332;28;20050;-77
2022/02/05 13:05:10;;;;;;;12.52;4.88;;;16.60;96.70;;;;;;4978891;28;20046;-78
2022/02/05 13:07:42;;;;;;;8.65;4.40;;;16.80;96.70;;;;;;4978737;28;20043;-78
2022/02/05 13:10:11;;;;;;;5.22;3.53;;;17.00;96.70;;;;;;4964322;28;20527;-79
2022/02/05 13:12:42;;;;;;;5.72;3.75;;;17.00;96.70;;;;;;4961418;28;20053;-78
2022/02/05 13:15:25;;;;;;;8.23;4.38;;;17.00;96.70;;;;;;4946671;28;20547;-78
2022/02/05 13:28:40;;;;;;;7.38;3.85;;;17.50;96.70;;;;;;4961639;28;20050;-78
2022/02/05 13:36:38;;;;;;;7.45;3.83;;;17.90;96.70;;;;;;4964866;28;20054;-79
2022/02/05 13:42:08;;;;;;;9.80;6.18;;;17.90;96.70;;;;;;4961707;28;20587;-80
2022/02/05 13:44:44;;;;;;;9.10;5.53;;;18.10;96.70;;;;;;4945607;28;20501;-78
2022/02/05 13:47:16;;;;;;;6.97;4.10;;;18.00;96.70;;;;;;4961727;28;20053;-77
2022/02/05 13:50:04;;;;;;;9.05;3.90;;;17.80;96.70;;;;;;4961928;28;20055;-78
2022/02/05 13:52:39;;;;;;;7.40;3.67;;;17.80;96.70;;;;;;4964529;28;20049;-77
2022/02/05 13:55:14;;;;;;;6.38;3.42;;;17.70;96.70;;;;;;4976828;28;20587;-77
2022/02/05 13:58:03;;;;;;;7.57;3.17;;;17.50;96.70;;;;;;4976231;28;20269;-77
2022/02/05 14:00:46;;;;;;;6.10;2.13;;;17.40;96.70;;;;;;4961225;28;20516;-77
2022/02/05 14:03:16;;;;;;;4.00;2.15;;;17.20;96.70;;;;;;4962468;28;20066;-77
2022/02/05 14:05:59;;;;;;;5.57;2.33;;;17.00;96.70;;;;;;4963184;28;20449;-77
2022/02/05 14:08:29;;;;;;;6.30;3.03;;;16.90;96.70;;;;;;4968727;28;20043;-78
2022/02/05 14:10:59;;;;;;;5.53;3.22;;;16.80;96.70;;;;;;4977008;28;20112;-78
2022/02/05 14:13:28;;;;;;;6.40;3.30;;;16.70;96.70;;;;;;4968632;28;20559;-78
2022/02/05 14:16:01;;;;;;;7.30;3.75;;;16.60;96.70;;;;;;4963919;28;20398;-78
2022/02/05 14:18:30;;;;;;;6.35;3.35;;;16.50;96.70;;;;;;4982984;28;20051;-80
2022/02/05 14:21:02;;;;;;;9.25;4.18;;;16.50;96.70;;;;;;4983055;28;20053;-86
2022/02/05 14:23:32;;;;;;;11.32;4.63;;;16.80;96.70;;;;;;4970441;28;20043;-84
2022/02/05 14:26:07;;;;;;;16.13;8.13;;;17.00;96.70;;;;;;4956275;28;20038;-86
2022/02/05 14:28:43;;;;;;;23.70;8.52;;;17.00;96.70;;;;;;4980412;28;20123;-86
2022/02/05 14:42:09;;;;;;;7.75;4.72;;;16.50;96.70;;;;;;5002732;28;20621;-86
2022/02/05 14:44:42;;;;;;;14.88;6.80;;;16.40;96.70;;;;;;5004636;28;20052;-85
2022/02/05 14:47:12;;;;;;;9.93;7.65;;;16.40;96.70;;;;;;4962841;28;20103;-85
2022/02/05 14:49:41;;;;;;;18.92;15.20;;;16.40;96.70;;;;;;4964972;28;20402;-86
2022/02/05 14:52:15;;;;;;;14.55;8.68;;;16.40;96.70;;;;;;4957217;28;20109;-86
2022/02/05 14:54:43;;;;;;;9.82;6.05;;;16.40;96.70;;;;;;4946863;28;20569;-84
2022/02/05 14:57:13;;;;;;;14.20;6.45;;;16.30;96.70;;;;;;4974732;28;20044;-79
2022/02/05 14:59:42;;;;;;;8.02;4.30;;;16.30;96.70;;;;;;4985876;28;20046;-78
2022/02/05 15:02:11;;;;;;;8.57;5.65;;;16.30;96.70;;;;;;4982611;28;20042;-78
2022/02/05 15:04:41;;;;;;;9.93;5.53;;;16.30;96.70;;;;;;4992082;28;20519;-75
2022/02/05 15:07:18;;;;;;;6.97;4.00;;;16.30;96.70;;;;;;4991398;28;20050;-79
2022/02/05 15:09:46;;;;;;;6.28;3.83;;;16.30;96.70;;;;;;5003408;28;20057;-78
2022/02/05 15:12:14;;;;;;;8.82;4.68;;;16.20;96.70;;;;;;4999876;28;20045;-77
2022/02/05 15:14:43;;;;;;;8.30;6.30;;;16.20;96.70;;;;;;4988637;28;20061;-77
2022/02/05 15:17:13;;;;;;;7.47;5.63;;;16.10;96.70;;;;;;4991106;28;20034;-76
2022/02/05 15:19:42;;;;;;;7.75;5.15;;;16.20;96.70;;;;;;4993570;28;20140;-77
2022/02/05 15:22:11;;;;;;;10.10;6.22;;;16.10;96.70;;;;;;4990595;28;20127;-77
2022/02/05 15:24:40;;;;;;;13.68;7.05;;;16.10;96.70;;;;;;4986488;28;20116;-76
2022/02/05 15:27:10;;;;;;;9.25;5.90;;;16.10;96.70;;;;;;4998927;28;20033;-77
2022/02/05 15:29:38;;;;;;;9.77;6.40;;;16.10;96.70;;;;;;5006942;28;20374;-77
2022/02/05 15:32:07;;;;;;;9.45;5.57;;;16.10;96.70;;;;;;5006620;28;20726;-77
2022/02/05 15:34:35;;;;;;;7.80;4.50;;;16.00;96.70;;;;;;5005165;28;20494;-77
2022/02/05 15:37:14;;;;;;;7.57;5.28;;;16.00;96.70;;;;;;4949366;28;20321;-76
2022/02/05 15:45:12;;;;;;;23.50;13.73;;;15.80;96.70;;;;;;4961685;28;20743;-77
2022/02/05 15:47:41;;;;;;;19.58;11.88;;;15.80;96.70;;;;;;4979626;28;20064;-76
2022/02/05 15:50:12;;;;;;;17.23;10.65;;;15.70;96.70;;;;;;4981611;28;20041;-75
2022/02/05 15:52:40;;;;;;;19.50;11.55;;;15.70;96.70;;;;;;5002874;28;20496;-76
2022/02/05 15:55:11;;;;;;;12.75;8.18;;;15.70;96.70;;;;;;4989253;28;20255;-77
2022/02/05 16:02:46;;;;;;;22.00;14.73;;;15.60;96.70;;;;;;5000618;28;20146;-77
2022/02/05 16:05:14;;;;;;;20.13;13.38;;;15.90;96.70;;;;;;4985366;28;20133;-77
2022/02/05 16:07:43;;;;;;;14.13;10.30;;;15.80;96.70;;;;;;4981789;28;20038;-77
2022/02/05 16:10:17;;;;;;;12.98;8.90;;;15.60;96.70;;;;;;4980087;28;20066;-77